createdAt,value
2017-09-06T00:00:19.314Z,83.90
2017-09-06T00:02:46.166Z,83.90
2017-09-06T00:05:12.456Z,83.40
2017-09-06T00:07:38.790Z,83.20
2017-09-06T00:10:07.277Z,83.60
2017-09-06T00:12:33.573Z,83.90
2017-09-06T00:15:00.822Z,84.20
2017-09-06T00:17:29.150Z,84.40
2017-09-06T00:19:57.191Z,84.60
2017-09-06T00:22:23.490Z,84.70
2017-09-06T00:24:49.812Z,85.00
2017-09-06T00:27:16.089Z,84.90
2017-09-06T00:29:42.384Z,84.50
2017-09-06T00:32:08.675Z,83.90
2017-09-06T00:34:35.048Z,83.60
2017-09-06T00:37:01.332Z,84.20
2017-09-06T00:39:27.638Z,85.00
2017-09-06T00:41:53.920Z,86.00
2017-09-06T00:44:20.235Z,85.60
2017-09-06T00:46:46.553Z,85.80
2017-09-06T00:49:12.854Z,85.70
2017-09-06T00:51:39.152Z,84.90
2017-09-06T00:54:05.447Z,84.90
2017-09-06T00:56:31.774Z,85.30
2017-09-06T00:58:58.090Z,85.00
2017-09-06T01:01:24.421Z,84.90
2017-09-06T01:03:51.273Z,84.60
2017-09-06T01:06:17.593Z,84.40
2017-09-06T01:08:43.874Z,84.40
2017-09-06T01:11:10.201Z,84.60
2017-09-06T01:13:36.517Z,84.50
2017-09-06T01:16:02.837Z,84.40
2017-09-06T01:18:29.133Z,84.20
2017-09-06T01:20:55.465Z,84.40
2017-09-06T01:23:21.797Z,84.40
2017-09-06T01:25:48.116Z,84.30
2017-09-06T01:28:14.447Z,84.10
2017-09-06T01:30:40.730Z,84.40
2017-09-06T01:33:07.062Z,84.10
2017-09-06T01:35:33.382Z,83.70
2017-09-06T01:37:59.697Z,83.80
2017-09-06T01:40:25.990Z,84.40
2017-09-06T01:42:52.322Z,85.20
2017-09-06T01:45:18.637Z,84.50
2017-09-06T01:47:44.959Z,84.20
2017-09-06T01:50:11.258Z,84.00
2017-09-06T01:52:37.551Z,84.00
2017-09-06T01:55:03.869Z,84.40
2017-09-06T01:57:30.162Z,84.70
2017-09-06T01:59:56.499Z,84.70
2017-09-06T02:02:22.799Z,84.60
2017-09-06T02:04:49.088Z,84.50
2017-09-06T02:07:15.368Z,84.50
2017-09-06T02:09:41.652Z,84.80
2017-09-06T02:12:07.949Z,84.50
2017-09-06T02:14:34.188Z,84.70
2017-09-06T02:17:01.115Z,85.20
2017-09-06T02:19:27.390Z,85.50
2017-09-06T02:21:53.666Z,85.90
2017-09-06T02:24:19.978Z,86.00
2017-09-06T02:26:46.251Z,85.70
2017-09-06T02:29:12.537Z,86.20
2017-09-06T02:31:38.817Z,85.90
2017-09-06T02:34:05.127Z,85.70
2017-09-06T02:36:31.420Z,85.50
2017-09-06T02:38:57.718Z,84.70
2017-09-06T02:41:24.021Z,83.90
2017-09-06T02:43:50.345Z,83.70
2017-09-06T02:46:16.637Z,83.30
2017-09-06T02:48:43.967Z,83.50
2017-09-06T02:51:10.302Z,83.20
2017-09-06T02:53:36.595Z,82.20
2017-09-06T02:56:02.910Z,82.80
2017-09-06T02:58:29.184Z,83.00
2017-09-06T03:00:55.486Z,83.00
2017-09-06T03:03:21.802Z,83.40
2017-09-06T03:05:48.106Z,82.80
2017-09-06T03:08:14.394Z,82.40
2017-09-06T03:10:40.683Z,81.80
2017-09-06T03:13:07.016Z,81.80
2017-09-06T03:15:33.291Z,81.40
2017-09-06T03:17:59.594Z,81.60
2017-09-06T03:20:25.854Z,82.10
2017-09-06T03:22:52.178Z,81.90
2017-09-06T03:25:18.475Z,81.90
2017-09-06T03:27:44.736Z,81.50
2017-09-06T03:30:11.025Z,81.70
2017-09-06T03:32:37.303Z,81.70
2017-09-06T03:35:03.599Z,81.80
2017-09-06T03:37:29.888Z,81.40
2017-09-06T03:39:56.194Z,81.30
2017-09-06T03:42:22.506Z,81.20
2017-09-06T03:44:49.290Z,81.60
2017-09-06T03:47:15.570Z,81.90
2017-09-06T03:49:41.861Z,82.00
2017-09-06T03:52:08.162Z,81.90
2017-09-06T03:54:34.453Z,81.40
2017-09-06T03:57:00.767Z,81.70
2017-09-06T03:59:27.052Z,81.50
2017-09-06T04:01:53.353Z,81.30
2017-09-06T04:04:19.649Z,81.40
2017-09-06T04:06:45.959Z,81.20
2017-09-06T04:09:12.243Z,80.90
2017-09-06T04:11:38.522Z,81.00
2017-09-06T04:14:04.842Z,81.20
2017-09-06T04:16:31.117Z,81.50
2017-09-06T04:18:57.426Z,81.50
2017-09-06T04:21:23.746Z,81.70
2017-09-06T04:23:50.062Z,81.90
2017-09-06T04:26:16.363Z,81.90
2017-09-06T04:28:42.681Z,81.80
2017-09-06T04:31:08.950Z,81.90
2017-09-06T04:33:35.244Z,82.00
2017-09-06T04:36:01.537Z,82.40
2017-09-06T04:38:27.813Z,82.50
2017-09-06T04:40:54.099Z,82.60
2017-09-06T04:43:20.375Z,82.10
2017-09-06T04:45:46.669Z,82.40
2017-09-06T04:48:12.932Z,82.40
2017-09-06T04:50:39.483Z,82.20
2017-09-06T04:53:05.790Z,81.90
2017-09-06T04:55:32.073Z,82.50
2017-09-06T04:57:58.395Z,82.40
2017-09-06T05:00:24.697Z,83.50
2017-09-06T05:02:51.005Z,83.50
2017-09-06T05:05:17.293Z,83.30
2017-09-06T05:07:43.600Z,83.30
2017-09-06T05:10:09.914Z,83.60
2017-09-06T05:12:36.259Z,82.80
2017-09-06T05:15:02.548Z,82.80
2017-09-06T05:17:28.840Z,82.50
2017-09-06T05:19:55.118Z,82.10
2017-09-06T05:22:21.413Z,82.50
2017-09-06T05:24:47.749Z,82.40
2017-09-06T05:27:14.062Z,82.20
2017-09-06T05:29:40.353Z,84.00
2017-09-06T05:32:06.616Z,85.10
2017-09-06T05:34:32.902Z,85.30
2017-09-06T05:36:59.224Z,86.70
2017-09-06T05:39:25.516Z,87.00
2017-09-06T05:41:51.817Z,87.30
2017-09-06T05:44:18.098Z,86.50
2017-09-06T05:46:44.400Z,86.70
2017-09-06T05:49:10.682Z,86.60
2017-09-06T05:51:36.980Z,86.20
2017-09-06T05:54:03.278Z,86.00
2017-09-06T05:56:29.542Z,85.60
2017-09-06T05:58:55.825Z,84.30
2017-09-06T06:01:22.169Z,84.20
2017-09-06T06:03:48.475Z,83.60
2017-09-06T06:06:14.746Z,84.90
2017-09-06T06:08:41.050Z,85.00
2017-09-06T06:11:07.332Z,84.50
2017-09-06T06:13:34.105Z,85.50
2017-09-06T06:16:00.369Z,84.90
2017-09-06T06:18:26.656Z,85.20
2017-09-06T06:20:52.941Z,84.90
2017-09-06T06:23:19.221Z,85.40
2017-09-06T06:25:45.507Z,85.50
2017-09-06T06:28:11.762Z,85.00
2017-09-06T06:30:38.087Z,84.50
2017-09-06T06:33:04.371Z,84.80
2017-09-06T06:35:30.663Z,84.10
2017-09-06T06:37:56.947Z,84.30
2017-09-06T06:40:23.236Z,84.70
2017-09-06T06:42:49.529Z,84.60
2017-09-06T06:45:15.814Z,84.60
2017-09-06T06:47:42.106Z,84.20
2017-09-06T06:50:08.382Z,84.30
2017-09-06T06:52:34.673Z,83.80
2017-09-06T06:55:00.951Z,84.10
2017-09-06T06:57:27.263Z,83.60
2017-09-06T06:59:53.562Z,83.80
2017-09-06T07:02:19.851Z,83.80
2017-09-06T07:04:46.192Z,84.20
2017-09-06T07:07:12.471Z,84.30
2017-09-06T07:09:38.798Z,84.10
2017-09-06T07:12:05.078Z,83.40
2017-09-06T07:14:31.762Z,82.90
2017-09-06T07:16:58.048Z,82.50
2017-09-06T07:19:24.331Z,82.70
2017-09-06T07:21:50.651Z,81.50
2017-09-06T07:24:16.930Z,80.60
2017-09-06T07:26:43.242Z,81.70
2017-09-06T07:29:09.527Z,80.60
2017-09-06T07:31:35.841Z,80.60
2017-09-06T07:34:02.151Z,79.60
2017-09-06T07:36:28.453Z,79.40
2017-09-06T07:38:54.718Z,79.50
2017-09-06T07:41:21.017Z,79.50
2017-09-06T07:43:47.348Z,79.20
2017-09-06T07:46:13.671Z,80.10
2017-09-06T07:48:39.969Z,80.80
2017-09-06T07:51:06.292Z,79.80
2017-09-06T07:53:32.619Z,81.50
2017-09-06T07:55:58.899Z,81.40
2017-09-06T07:58:25.201Z,80.90
2017-09-06T08:00:51.529Z,80.90
2017-09-06T08:03:17.806Z,81.40
2017-09-06T08:05:44.140Z,81.40
2017-09-06T08:08:10.439Z,79.30
2017-09-06T08:10:37.736Z,78.20
2017-09-06T08:13:04.034Z,76.30
2017-09-06T08:15:30.333Z,76.50
2017-09-06T08:17:56.589Z,76.50
2017-09-06T08:20:22.881Z,77.10
2017-09-06T08:22:49.152Z,76.70
2017-09-06T08:25:15.438Z,76.40
2017-09-06T08:27:41.751Z,76.70
2017-09-06T08:30:08.038Z,76.10
2017-09-06T08:32:34.318Z,75.80
2017-09-06T08:35:00.616Z,76.00
2017-09-06T08:37:26.931Z,75.20
2017-09-06T08:39:53.231Z,76.50
2017-09-06T08:42:19.549Z,75.90
2017-09-06T08:44:45.810Z,75.30
2017-09-06T08:47:12.116Z,75.20
2017-09-06T08:49:38.369Z,75.80
2017-09-06T08:52:04.678Z,74.30
2017-09-06T08:54:30.962Z,74.20
2017-09-06T08:56:57.252Z,70.10
2017-09-06T08:59:23.555Z,71.60
2017-09-06T09:01:49.835Z,67.50
2017-09-06T09:04:16.174Z,69.60
2017-09-06T09:06:42.492Z,69.80
2017-09-06T09:09:08.770Z,69.60
2017-09-06T09:11:35.095Z,67.70
2017-09-06T09:14:01.382Z,69.10
2017-09-06T09:16:27.694Z,69.20
2017-09-06T09:19:05.325Z,71.70
2017-09-06T09:21:31.616Z,69.80
2017-09-06T09:23:57.938Z,67.10
2017-09-06T09:26:24.225Z,68.30
2017-09-06T09:28:50.503Z,66.70
2017-09-06T09:31:16.830Z,67.20
2017-09-06T09:33:43.118Z,66.20
2017-09-06T09:36:09.445Z,67.60
2017-09-06T09:38:36.255Z,67.60
2017-09-06T09:41:02.554Z,65.10
2017-09-06T09:43:28.886Z,66.10
2017-09-06T09:45:55.190Z,64.50
2017-09-06T09:48:21.530Z,66.20
2017-09-06T09:50:47.810Z,65.80
2017-09-06T09:53:14.118Z,62.30
2017-09-06T09:55:40.430Z,62.70
2017-09-06T09:58:06.744Z,62.90
2017-09-06T10:00:33.013Z,63.20
2017-09-06T10:02:59.295Z,62.00
2017-09-06T10:05:25.611Z,61.70
2017-09-06T10:07:51.896Z,60.90
2017-09-06T10:10:18.181Z,59.40
2017-09-06T10:12:44.457Z,59.50
2017-09-06T10:15:10.794Z,59.20
2017-09-06T10:17:37.094Z,59.50
2017-09-06T10:20:03.810Z,58.80
2017-09-06T10:22:30.169Z,59.90
2017-09-06T10:24:56.457Z,59.20
2017-09-06T10:27:22.758Z,58.90
2017-09-06T10:29:49.062Z,55.60
2017-09-06T10:32:15.364Z,56.80
2017-09-06T10:34:41.630Z,57.80
2017-09-06T10:37:07.919Z,54.80
2017-09-06T10:39:34.193Z,56.80
2017-09-06T10:42:00.512Z,51.10
2017-09-06T10:44:26.825Z,50.80
2017-09-06T10:46:53.120Z,50.80
2017-09-06T10:49:19.402Z,47.50
2017-09-06T10:51:45.733Z,46.20
2017-09-06T10:54:12.057Z,43.20
2017-09-06T10:56:38.319Z,41.80
2017-09-06T10:59:04.668Z,39.80
2017-09-06T11:01:30.929Z,38.20
2017-09-06T11:03:57.219Z,39.60
2017-09-06T11:06:23.567Z,37.20
2017-09-06T11:08:49.850Z,36.20
2017-09-06T11:11:16.152Z,37.90
2017-09-06T11:13:42.448Z,34.60
2017-09-06T11:16:08.758Z,35.70
2017-09-06T11:18:35.064Z,36.80
2017-09-06T11:21:01.337Z,38.00
2017-09-06T11:23:27.650Z,37.50
2017-09-06T11:25:53.968Z,35.20
2017-09-06T11:28:20.250Z,34.80
2017-09-06T11:30:46.545Z,35.60
2017-09-06T11:33:12.867Z,36.20
2017-09-06T11:35:39.161Z,32.70
2017-09-06T11:38:05.462Z,34.50
2017-09-06T11:40:31.750Z,34.80
2017-09-06T11:42:58.051Z,35.00
2017-09-06T11:45:24.360Z,33.00
2017-09-06T11:47:50.672Z,34.40
2017-09-06T11:50:16.954Z,38.50
2017-09-06T11:52:43.271Z,41.50
2017-09-06T11:55:09.626Z,44.60
2017-09-06T11:57:35.910Z,46.80
2017-09-06T12:00:02.268Z,48.60
2017-09-06T12:02:28.563Z,49.90
2017-09-06T12:04:54.852Z,49.20
2017-09-06T12:07:21.162Z,49.20
2017-09-06T12:09:47.505Z,47.50
2017-09-06T12:12:13.819Z,46.80
2017-09-06T12:14:40.129Z,47.70
2017-09-06T12:17:06.421Z,48.80
2017-09-06T12:19:32.685Z,48.40
2017-09-06T12:21:58.981Z,40.10
2017-09-06T12:24:25.253Z,36.20
2017-09-06T12:26:51.550Z,35.30
2017-09-06T12:29:18.737Z,35.40
2017-09-06T12:31:45.019Z,39.50
2017-09-06T12:34:11.295Z,42.00
2017-09-06T12:36:37.574Z,43.60
2017-09-06T12:39:03.919Z,43.60
2017-09-06T12:41:30.189Z,42.50
2017-09-06T12:43:56.503Z,40.30
2017-09-06T12:46:22.794Z,40.20
2017-09-06T12:48:49.095Z,39.30
2017-09-06T12:51:15.410Z,36.90
2017-09-06T12:53:41.728Z,36.70
2017-09-06T12:56:08.001Z,36.00
2017-09-06T12:58:34.284Z,33.80
2017-09-06T13:01:00.607Z,36.10
2017-09-06T13:03:26.928Z,37.60
2017-09-06T13:05:53.230Z,39.00
2017-09-06T13:08:19.516Z,38.00
2017-09-06T13:10:45.826Z,40.30
2017-09-06T13:13:12.134Z,38.90
2017-09-06T13:15:38.469Z,35.30
2017-09-06T13:18:04.772Z,31.10
2017-09-06T13:20:31.097Z,34.40
2017-09-06T13:22:57.443Z,38.40
2017-09-06T13:25:23.731Z,43.00
2017-09-06T13:27:50.044Z,46.10
2017-09-06T13:30:16.331Z,48.60
2017-09-06T13:32:42.634Z,50.40
2017-09-06T13:35:08.983Z,50.10
2017-09-06T13:37:35.520Z,45.30
2017-09-06T13:40:01.782Z,38.10
2017-09-06T13:42:28.077Z,33.30
2017-09-06T13:44:54.387Z,29.30
2017-09-06T13:47:20.659Z,26.60
2017-09-06T13:49:46.970Z,30.20
2017-09-06T13:52:13.257Z,31.30
2017-09-06T13:54:39.563Z,35.00
2017-09-06T13:57:05.854Z,37.90
2017-09-06T13:59:32.137Z,35.60
2017-09-06T14:01:58.435Z,35.80
2017-09-06T14:04:24.748Z,38.40
2017-09-06T14:06:51.050Z,43.90
2017-09-06T14:09:17.347Z,45.70
2017-09-06T14:11:43.683Z,42.50
2017-09-06T14:14:09.996Z,39.20
2017-09-06T14:16:36.566Z,37.60
2017-09-06T14:19:02.848Z,39.40
2017-09-06T14:21:29.113Z,40.60
2017-09-06T14:23:55.409Z,43.70
2017-09-06T14:26:21.698Z,46.80
2017-09-06T14:28:47.986Z,49.60
2017-09-06T14:31:14.259Z,49.60
2017-09-06T14:33:40.575Z,42.70
2017-09-06T14:36:07.619Z,40.00
2017-09-06T14:38:34.211Z,37.20
2017-09-06T14:41:00.512Z,34.80
2017-09-06T14:43:26.794Z,33.10
2017-09-06T14:45:53.119Z,32.50
2017-09-06T14:48:19.449Z,31.00
2017-09-06T14:50:45.758Z,30.30
2017-09-06T14:53:12.042Z,32.80
2017-09-06T14:55:38.372Z,37.10
2017-09-06T14:58:04.664Z,41.20
2017-09-06T15:00:31.283Z,40.60
2017-09-06T15:02:57.597Z,42.90
2017-09-06T15:05:23.849Z,45.20
2017-09-06T15:07:50.164Z,46.50
2017-09-06T15:10:16.456Z,46.20
2017-09-06T15:12:42.729Z,49.00
2017-09-06T15:15:09.012Z,46.50
2017-09-06T15:17:35.322Z,41.10
2017-09-06T15:20:01.589Z,37.20
2017-09-06T15:22:27.890Z,36.30
2017-09-06T15:24:54.149Z,33.20
2017-09-06T15:27:20.456Z,30.40
2017-09-06T15:29:46.762Z,32.60
2017-09-06T15:32:13.070Z,32.70
2017-09-06T15:34:39.394Z,35.40
2017-09-06T15:37:05.662Z,40.00
2017-09-06T15:39:31.960Z,38.10
2017-09-06T15:41:58.225Z,38.00
2017-09-06T15:44:24.547Z,39.40
2017-09-06T15:46:50.854Z,41.40
2017-09-06T15:49:17.128Z,44.50
2017-09-06T15:51:43.437Z,48.10
2017-09-06T15:54:09.714Z,50.40
2017-09-06T15:56:36.002Z,50.70
2017-09-06T15:59:02.284Z,52.20
2017-09-06T16:01:28.595Z,53.10
2017-09-06T16:03:55.748Z,52.70
2017-09-06T16:06:22.098Z,54.90
2017-09-06T16:08:48.424Z,56.10
2017-09-06T16:11:14.739Z,56.70
2017-09-06T16:13:41.273Z,57.40
2017-09-06T16:16:07.646Z,57.50
2017-09-06T16:18:34.091Z,55.90
2017-09-06T16:21:00.397Z,57.80
2017-09-06T16:23:27.128Z,57.40
2017-09-06T16:25:53.416Z,57.70
2017-09-06T16:28:20.054Z,59.20
2017-09-06T16:30:46.460Z,58.70
2017-09-06T16:33:13.624Z,58.70
2017-09-06T16:35:39.923Z,59.80
2017-09-06T16:38:06.214Z,59.60
2017-09-06T16:40:32.988Z,58.20
2017-09-06T16:42:59.337Z,58.70
2017-09-06T16:45:25.626Z,58.60
2017-09-06T16:47:51.953Z,57.80
2017-09-06T16:50:18.246Z,56.90
2017-09-06T16:52:44.545Z,57.30
2017-09-06T16:55:10.883Z,57.20
2017-09-06T16:57:37.204Z,58.20
2017-09-06T17:00:03.526Z,58.20
2017-09-06T17:02:30.700Z,58.80
2017-09-06T17:04:57.022Z,58.20
2017-09-06T17:07:23.608Z,58.60
2017-09-06T17:09:51.269Z,58.90
2017-09-06T17:12:17.564Z,59.30
2017-09-06T17:14:43.853Z,58.10
2017-09-06T17:17:10.145Z,58.50
2017-09-06T17:19:36.443Z,59.60
2017-09-06T17:22:02.746Z,58.70
2017-09-06T17:24:29.907Z,60.40
2017-09-06T17:26:56.258Z,59.90
2017-09-06T17:29:22.696Z,59.60
2017-09-06T17:31:49.014Z,59.30
2017-09-06T17:34:16.847Z,60.10
2017-09-06T17:36:43.147Z,58.30
2017-09-06T17:39:09.443Z,59.90
2017-09-06T17:41:35.764Z,57.20
2017-09-06T17:44:02.096Z,57.80
2017-09-06T17:46:29.498Z,58.60
2017-09-06T17:48:55.826Z,58.60
2017-09-06T17:51:22.116Z,59.50
2017-09-06T17:53:48.437Z,60.40
2017-09-06T17:56:14.718Z,59.40
2017-09-06T17:58:41.629Z,60.00
2017-09-06T18:01:07.946Z,58.40
2017-09-06T18:03:34.422Z,59.20
2017-09-06T18:06:00.736Z,58.80
2017-09-06T18:08:27.416Z,59.20
2017-09-06T18:10:53.711Z,58.90
2017-09-06T18:13:19.999Z,58.60
2017-09-06T18:15:46.328Z,59.30
2017-09-06T18:18:12.622Z,60.70
2017-09-06T18:20:38.918Z,59.30
2017-09-06T18:23:05.200Z,60.10
2017-09-06T18:25:31.551Z,60.50
2017-09-06T18:27:57.950Z,60.50
2017-09-06T18:30:24.278Z,59.80
2017-09-06T18:32:50.614Z,59.70
2017-09-06T18:35:16.932Z,60.70
2017-09-06T18:37:43.310Z,60.90
2017-09-06T18:40:09.623Z,60.10
2017-09-06T18:42:35.965Z,61.00
2017-09-06T18:45:02.299Z,60.90
2017-09-06T18:47:29.250Z,60.30
2017-09-06T18:49:56.163Z,62.00
2017-09-06T18:52:23.523Z,62.00
2017-09-06T18:54:49.862Z,61.30
2017-09-06T18:57:16.253Z,61.00
2017-09-06T18:59:43.387Z,61.00
2017-09-06T19:02:09.853Z,60.80
2017-09-06T19:04:36.209Z,62.30
2017-09-06T19:07:02.542Z,61.10
2017-09-06T19:09:28.956Z,60.30
2017-09-06T19:11:55.286Z,61.90
2017-09-06T19:14:21.601Z,61.00
2017-09-06T19:16:47.927Z,60.60
2017-09-06T19:19:14.235Z,61.30
2017-09-06T19:21:40.571Z,61.90
2017-09-06T19:24:06.947Z,62.50
2017-09-06T19:26:33.257Z,62.40
2017-09-06T19:28:59.562Z,62.30
2017-09-06T19:31:25.997Z,63.80
2017-09-06T19:33:52.392Z,62.70
2017-09-06T19:36:18.701Z,62.50
2017-09-06T19:38:45.041Z,63.30
2017-09-06T19:41:11.358Z,62.60
2017-09-06T19:43:37.690Z,62.40
2017-09-06T19:46:03.966Z,62.90
2017-09-06T19:48:30.301Z,63.40
2017-09-06T19:50:56.627Z,63.50
2017-09-06T19:53:22.894Z,63.30
2017-09-06T19:55:49.219Z,63.50
2017-09-06T19:58:15.519Z,63.80
2017-09-06T20:00:43.923Z,63.70
2017-09-06T20:03:10.993Z,64.80
2017-09-06T20:05:37.343Z,63.50
2017-09-06T20:08:03.659Z,63.20
2017-09-06T20:10:29.993Z,64.10
2017-09-06T20:12:56.288Z,65.40
2017-09-06T20:15:22.594Z,64.30
2017-09-06T20:17:48.895Z,64.70
2017-09-06T20:20:15.232Z,65.20
2017-09-06T20:22:41.559Z,64.70
2017-09-06T20:25:07.873Z,64.50
2017-09-06T20:27:35.203Z,65.30
2017-09-06T20:30:08.696Z,65.00
2017-09-06T20:32:36.643Z,65.60
2017-09-06T20:35:05.570Z,65.40
2017-09-06T20:37:33.938Z,64.70
2017-09-06T20:40:02.164Z,65.30
2017-09-06T20:42:29.224Z,65.30
2017-09-06T20:44:57.925Z,65.40
2017-09-06T20:47:24.957Z,65.70
2017-09-06T20:49:51.267Z,67.10
2017-09-06T20:52:19.573Z,66.60
2017-09-06T20:54:48.104Z,66.20
2017-09-06T20:57:14.450Z,66.60
2017-09-06T20:59:40.805Z,65.50
2017-09-06T21:02:17.058Z,65.80
2017-09-06T21:04:45.314Z,66.30
2017-09-06T21:07:13.845Z,66.90
2017-09-06T21:09:41.162Z,67.00
2017-09-06T21:12:08.469Z,66.60
2017-09-06T21:14:35.745Z,66.40
2017-09-06T21:17:04.037Z,65.80
2017-09-06T21:19:31.052Z,66.80
2017-09-06T21:21:57.376Z,67.60
2017-09-06T21:24:23.686Z,66.50
2017-09-06T21:26:49.993Z,66.70
2017-09-06T21:29:16.283Z,67.40
2017-09-06T21:31:42.970Z,66.80
2017-09-06T21:34:09.262Z,66.70
2017-09-06T21:36:35.588Z,66.20
2017-09-06T21:39:01.898Z,67.00
2017-09-06T21:41:28.199Z,67.10
2017-09-06T21:43:54.535Z,66.70
2017-09-06T21:46:20.831Z,66.50
2017-09-06T21:48:47.186Z,67.70
2017-09-06T21:51:13.474Z,67.50
2017-09-06T21:53:39.786Z,67.50
2017-09-06T21:56:06.070Z,68.20
2017-09-06T21:58:32.435Z,68.30
2017-09-06T22:00:58.718Z,68.80
2017-09-06T22:03:25.631Z,69.20
2017-09-06T22:05:51.957Z,68.80
2017-09-06T22:08:18.265Z,69.30
2017-09-06T22:10:44.571Z,69.30
2017-09-06T22:13:10.871Z,70.60
2017-09-06T22:15:37.201Z,69.60
2017-09-06T22:18:03.468Z,70.00
2017-09-06T22:20:30.138Z,70.20
2017-09-06T22:22:56.418Z,69.90
2017-09-06T22:25:22.716Z,70.70
2017-09-06T22:27:49.040Z,70.10
2017-09-06T22:30:15.373Z,70.90
2017-09-06T22:32:41.679Z,70.40
2017-09-06T22:35:07.979Z,71.20
2017-09-06T22:37:34.285Z,70.80
2017-09-06T22:40:00.563Z,70.80
2017-09-06T22:42:27.491Z,71.40
2017-09-06T22:44:53.762Z,72.00
2017-09-06T22:47:20.065Z,72.20
2017-09-06T22:49:46.367Z,72.70
2017-09-06T22:52:12.656Z,73.50
2017-09-06T22:54:38.995Z,72.80
2017-09-06T22:57:05.257Z,72.80
2017-09-06T22:59:31.537Z,73.50
2017-09-06T23:01:57.797Z,74.00
2017-09-06T23:04:24.077Z,73.40
2017-09-06T23:06:50.378Z,73.70
2017-09-06T23:09:17.151Z,73.40
2017-09-06T23:11:43.434Z,74.20
2017-09-06T23:14:09.702Z,75.10
2017-09-06T23:16:36.010Z,75.70
2017-09-06T23:19:02.279Z,76.00
2017-09-06T23:21:28.617Z,76.80
2017-09-06T23:23:54.877Z,77.00
2017-09-06T23:26:21.186Z,77.10
2017-09-06T23:28:47.484Z,77.60
2017-09-06T23:31:14.103Z,77.00
2017-09-06T23:33:40.366Z,76.80
2017-09-06T23:36:06.650Z,76.90
2017-09-06T23:38:32.939Z,76.00
2017-09-06T23:40:59.186Z,75.40
2017-09-06T23:43:25.502Z,74.80
2017-09-06T23:45:51.769Z,74.60
2017-09-06T23:48:18.065Z,74.40
2017-09-06T23:50:44.358Z,74.90
2017-09-06T23:53:10.667Z,75.00
2017-09-06T23:55:36.946Z,75.10
2017-09-06T23:58:03.275Z,74.80
